Terminal Aerodrome Forecast
Issued by NWS

Home | Current Version | Previous Version | Graphics & Text | Print | Product List | Glossary Off
Versions: 1 2 3 4 5 6 7 8 9 10 11 12

000
FTUS43 KMPX 192337
TAFRNH
TAF
KRNH 192337Z 2000/2024 22004KT P6SM BKN250
     FM200300 26004KT P6SM BKN250
     FM201000 27001KT 5SM BR BKN150
     FM201500 23002KT P6SM OVC100=

USA.gov is the U.S. government's official web portal to all federal, state and local government web resources and services.